TimeEST,TemperatureF,Dew PointF,Humidity,Sea Level PressureIn,VisibilityMPH,Wind Direction,Wind SpeedMPH,Gust SpeedMPH,PrecipitationIn,Events,Conditions,WindDirDegrees,DateUTC
12:58 AM,49.8,47.1,90,30.55,10.0,North,10.4,-,N/A,,Partly Cloudy,10,2013-11-05 05:58:00
1:58 AM,50.0,48.2,94,30.54,10.0,NNE,10.4,-,N/A,,Scattered Clouds,20,2013-11-05 06:58:00
2:58 AM,51.1,49.1,93,30.53,10.0,North,10.4,-,N/A,,Overcast,10,2013-11-05 07:58:00
3:58 AM,51.3,48.7,91,30.54,10.0,North,15.0,-,N/A,,Overcast,360,2013-11-05 08:58:00
4:58 AM,48.7,48.0,97,30.54,10.0,North,9.2,-,N/A,,Overcast,360,2013-11-05 09:58:00
5:58 AM,49.6,49.5,99,30.53,10.0,NNE,10.4,-,N/A,,Mostly Cloudy,30,2013-11-05 10:58:00
6:58 AM,53.1,52.5,98,30.55,10.0,North,9.2,-,N/A,,Overcast,10,2013-11-05 11:58:00
7:58 AM,51.4,51.1,99,30.57,10.0,NNW,8.1,-,N/A,,Overcast,340,2013-11-05 12:58:00
8:58 AM,53.1,51.4,94,30.57,10.0,North,9.2,-,N/A,,Overcast,360,2013-11-05 13:58:00
9:58 AM,56.7,52.9,87,30.57,10.0,NNE,9.2,-,N/A,,Overcast,30,2013-11-05 14:58:00
10:58 AM,63.5,51.1,64,30.56,10.0,NE,11.5,-,N/A,,Mostly Cloudy,50,2013-11-05 15:58:00
11:58 AM,62.1,51.1,67,30.55,10.0,NE,8.1,-,N/A,,Overcast,40,2013-11-05 16:58:00
12:58 PM,62.4,49.6,63,30.52,10.0,ENE,13.8,-,N/A,,Overcast,60,2013-11-05 17:58:00
1:58 PM,61.7,48.6,62,30.52,10.0,ENE,15.0,-,N/A,,Overcast,70,2013-11-05 18:58:00
2:58 PM,60.1,48.0,64,30.52,10.0,East,8.1,-,N/A,,Mostly Cloudy,80,2013-11-05 19:58:00
3:58 PM,60.4,49.1,66,30.51,10.0,East,11.5,-,N/A,,Overcast,80,2013-11-05 20:58:00
4:58 PM,59.2,49.3,70,30.51,10.0,ENE,9.2,-,N/A,,Overcast,60,2013-11-05 21:58:00
5:58 PM,58.5,50.0,73,30.52,10.0,ENE,9.2,-,N/A,,Overcast,70,2013-11-05 22:58:00
6:58 PM,56.5,49.6,78,30.51,10.0,ENE,10.4,-,N/A,,Mostly Cloudy,70,2013-11-05 23:58:00
7:58 PM,54.9,50.7,86,30.51,10.0,ENE,8.1,-,N/A,,Clear,70,2013-11-06 00:58:00
8:58 PM,52.9,50.0,90,30.50,10.0,East,8.1,-,N/A,,Clear,80,2013-11-06 01:58:00
9:58 PM,49.6,48.9,97,30.49,10.0,East,6.9,-,N/A,,Clear,80,2013-11-06 02:58:00
10:58 PM,51.1,49.6,95,30.48,10.0,East,5.8,-,N/A,,Clear,80,2013-11-06 03:58:00
11:58 PM,49.1,49.1,100,30.48,10.0,ENE,4.6,-,N/A,,Clear,70,2013-11-06 04:58:00